Main page
METAR-TAF:

METAR-TAF

Airports :

Vitoria Airport

Vitoria, Spain

latitude: 42-53N, longitude: 002-43W, elevation: 513 m

Current weather observation

The report was made 40 minutes ago, at 22:00 UTC
Calm wind
Temperature 1°C
Humidity 93%
Pressure 1026 hPa
Visibility 10 km or more
no clouds below 1500 m and no cumulonimbus

METAR: LEVT 232200Z 00000KT CAVOK 01/00 Q1026

Time: 23:40 (22:40 UTC)

Forecast

The report was made 5 hours and 40 minutes ago, at 17:00 UTC
Forecast valid from 23 at 18 UTC to 24 at 18 UTC
Wind 5 kt from variable directions
Visibility 10 km or more
no clouds below 1500 m and no cumulonimbus
Probability 30% :
Temporary
from 24 at 00 UTC to 24 at 03 UTC
Visibility: 0350 m
at a height of 100 ft
fog
Temporary
from 24 at 03 UTC to 24 at 18 UTC
Wind 10 kt from the South

TAF: LEVT 231700Z 2318/2418 VRB05KT CAVOK TX11/2415Z TNM01/2403Z PROB30 TEMPO 2400/2403 0350 FG VV001 TEMPO 2403/2418 19010KT

Weather observations and forecasts of more than 4000 airports (METAR and TAF reports).

The available stations are represented by yellow and red dots on the map.

Hover mouse over dot to see the name of the station.

Then click to see weather observations and forecasts.

To change the map : click on the green buttons with a black cross to zoom in, on the green button with a dash to zoom out, or on the green arrows for adjacent maps.


METAR-TAF: